KBBD/BBD METAR and TAF weather

Enter ICAO airport designator
Station Type Date Time Source
KBBD METAR 2022/01/18 07:55 UTC NOAA

KBBD 180755Z AUTO 20007KT 10SM 09/M09 RMK AO2


Station Type Date Time Source
KBBD Decoded METAR 2022/01/18 07:55 UTC NOAA

Brady, Curtis Field Airport, TX, United States (KBBD) 31-10-45N 099-19-26W
Jan 18, 2022 - 02:55 AM EST / 2022.01.18 0755 UTC
Wind: from the SSW (200 degrees) at 8 MPH (7 KT):0
Visibility: 10 mile(s):0
Temperature: 48 F (9 C)
Dew Point: 15 F (-9 C)
Relative Humidity: 26%
ob: KBBD 180755Z AUTO 20007KT 10SM 09/M09 RMK AO2
cycle: 8

Station Type Date Time Source
KBBD TAF 2022/01/18 06:22 UTC NOAA

TAF KBBD 180520Z 1806/1906 18007KT P6SM SKC
FM181500 19018G25KT P6SM SKC
AMD NOT SKED

Example: see airport list